createdAt,value
2023-09-13T00:00:17.542Z,11.67
2023-09-13T00:02:47.338Z,11.77
2023-09-13T00:05:15.882Z,11.71
2023-09-13T00:07:44.351Z,11.33
2023-09-13T00:10:13.004Z,11.14
2023-09-13T00:12:41.577Z,10.87
2023-09-13T00:15:11.114Z,10.77
2023-09-13T00:17:40.107Z,10.72
2023-09-13T00:20:12.706Z,10.61
2023-09-13T00:22:41.165Z,10.55
2023-09-13T00:25:11.349Z,10.47
2023-09-13T00:27:40.250Z,10.57
2023-09-13T00:30:12.058Z,10.54
2023-09-13T00:32:40.847Z,10.60
2023-09-13T00:35:11.569Z,10.67
2023-09-13T00:37:40.653Z,10.57
2023-09-13T00:40:10.633Z,10.57
2023-09-13T00:42:39.463Z,10.59
2023-09-13T00:45:09.705Z,10.62
2023-09-13T00:47:39.348Z,10.62
2023-09-13T00:50:14.496Z,10.61
2023-09-13T00:52:45.708Z,10.61
2023-09-13T00:55:17.715Z,10.59
2023-09-13T00:57:49.471Z,10.62
2023-09-13T01:00:20.116Z,10.73
2023-09-13T01:02:49.075Z,10.75
2023-09-13T01:05:20.015Z,10.77
2023-09-13T01:07:50.440Z,10.82
2023-09-13T01:10:21.089Z,10.85
2023-09-13T01:12:49.746Z,10.77
2023-09-13T01:15:18.465Z,10.62
2023-09-13T01:17:52.444Z,10.64
2023-09-13T01:20:33.710Z,10.41
2023-09-13T01:23:24.302Z,10.30
2023-09-13T01:26:11.414Z,10.10
2023-09-13T01:28:47.709Z,9.99
2023-09-13T01:31:22.260Z,9.98
2023-09-13T01:33:51.277Z,9.97
2023-09-13T01:36:20.037Z,9.96
2023-09-13T01:38:48.937Z,9.86
2023-09-13T01:41:33.246Z,9.98
2023-09-13T01:44:03.700Z,10.00
2023-09-13T01:46:36.886Z,9.84
2023-09-13T01:49:07.578Z,9.77
2023-09-13T01:51:36.533Z,9.76
2023-09-13T01:54:05.446Z,9.80
2023-09-13T01:56:34.108Z,9.85
2023-09-13T01:59:04.746Z,9.86
2023-09-13T02:01:33.515Z,9.93
2023-09-13T02:04:02.135Z,9.86
2023-09-13T02:06:31.102Z,9.74
2023-09-13T02:08:59.886Z,9.74
2023-09-13T02:11:28.503Z,9.76
2023-09-13T02:13:57.436Z,9.81
2023-09-13T02:16:27.659Z,9.84
2023-09-13T02:18:56.602Z,9.78
2023-09-13T02:21:25.298Z,9.81
2023-09-13T02:23:55.172Z,9.85
2023-09-13T02:26:25.018Z,9.83
2023-09-13T02:28:54.018Z,9.85
2023-09-13T02:31:28.556Z,9.80
2023-09-13T02:33:57.972Z,9.77
2023-09-13T02:36:26.627Z,9.86
2023-09-13T02:38:56.055Z,9.89
2023-09-13T02:41:24.635Z,9.97
2023-09-13T02:43:53.188Z,9.97
2023-09-13T02:46:21.720Z,10.02
2023-09-13T02:48:51.924Z,10.13
2023-09-13T02:51:20.324Z,10.16
2023-09-13T02:53:49.050Z,10.19
2023-09-13T02:56:17.650Z,10.08
2023-09-13T02:58:46.431Z,9.91
2023-09-13T03:01:14.867Z,9.96
2023-09-13T03:03:43.685Z,9.88
2023-09-13T03:06:16.699Z,9.84
2023-09-13T03:08:45.636Z,9.92
2023-09-13T03:11:14.748Z,9.90
2023-09-13T03:13:44.226Z,9.87
2023-09-13T03:16:15.300Z,9.81
2023-09-13T03:18:44.242Z,9.86
2023-09-13T03:21:15.148Z,9.91
2023-09-13T03:23:46.906Z,9.89
2023-09-13T03:26:17.025Z,9.92
2023-09-13T03:28:47.379Z,9.68
2023-09-13T03:31:18.015Z,9.59
2023-09-13T03:33:48.718Z,9.56
2023-09-13T03:36:19.837Z,9.50
2023-09-13T03:38:49.086Z,9.36
2023-09-13T03:41:20.124Z,9.38
2023-09-13T03:43:49.291Z,9.46
2023-09-13T03:46:18.337Z,9.47
2023-09-13T03:48:48.930Z,9.40
2023-09-13T03:51:20.355Z,9.38
2023-09-13T03:53:50.785Z,9.38
2023-09-13T03:56:19.342Z,9.39
2023-09-13T03:58:47.707Z,9.45
2023-09-13T04:01:16.625Z,9.42
2023-09-13T04:03:45.709Z,9.36
2023-09-13T04:06:14.921Z,9.34
2023-09-13T04:08:45.227Z,9.43
2023-09-13T04:11:13.895Z,9.55
2023-09-13T04:13:42.596Z,9.62
2023-09-13T04:16:16.701Z,9.66
2023-09-13T04:18:45.310Z,9.59
2023-09-13T04:21:14.204Z,9.56
2023-09-13T04:23:42.923Z,9.56
2023-09-13T04:26:14.676Z,9.62
2023-09-13T04:28:46.648Z,9.57
2023-09-13T04:31:15.320Z,9.49
2023-09-13T04:33:55.675Z,9.49
2023-09-13T04:36:25.048Z,9.48
2023-09-13T04:38:53.373Z,9.43
2023-09-13T04:41:23.545Z,9.37
2023-09-13T04:43:52.181Z,9.35
2023-09-13T04:46:20.765Z,9.39
2023-09-13T04:48:49.712Z,9.47
2023-09-13T04:51:18.254Z,9.39
2023-09-13T04:53:47.029Z,9.38
2023-09-13T04:56:15.969Z,9.34
2023-09-13T04:58:46.082Z,9.31
2023-09-13T05:01:14.732Z,9.26
2023-09-13T05:03:43.609Z,9.22
2023-09-13T05:06:12.452Z,9.13
2023-09-13T05:08:41.533Z,9.08
2023-09-13T05:11:10.075Z,9.02
2023-09-13T05:13:40.924Z,9.04
2023-09-13T05:16:14.343Z,9.07
2023-09-13T05:18:43.206Z,9.12
2023-09-13T05:21:11.579Z,9.10
2023-09-13T05:23:40.046Z,9.09
2023-09-13T05:26:09.818Z,9.08
2023-09-13T05:28:38.290Z,9.05
2023-09-13T05:31:07.161Z,9.04
2023-09-13T05:33:37.171Z,9.10
2023-09-13T05:36:09.601Z,9.20
2023-09-13T05:38:38.363Z,9.27
2023-09-13T05:41:09.036Z,9.27
2023-09-13T05:43:37.730Z,9.30
2023-09-13T05:46:07.218Z,9.34
2023-09-13T05:48:38.838Z,9.34
2023-09-13T05:51:07.328Z,9.31
2023-09-13T05:53:36.118Z,9.10
2023-09-13T05:56:05.988Z,9.06
2023-09-13T05:58:34.473Z,9.08
2023-09-13T06:01:03.577Z,9.06
2023-09-13T06:03:33.811Z,9.04
2023-09-13T06:06:05.201Z,9.11
2023-09-13T06:08:33.626Z,9.16
2023-09-13T06:11:02.270Z,9.10
2023-09-13T06:13:30.845Z,9.03
2023-09-13T06:15:59.449Z,8.95
2023-09-13T06:18:28.348Z,9.06
2023-09-13T06:20:57.205Z,9.07
2023-09-13T06:23:38.434Z,9.15
2023-09-13T06:26:07.399Z,9.09
2023-09-13T06:28:36.171Z,9.11
2023-09-13T06:31:05.510Z,9.16
2023-09-13T06:36:08.311Z,9.26
2023-09-13T06:38:39.691Z,9.30
2023-09-13T06:41:09.112Z,9.27
2023-09-13T06:43:39.275Z,9.36
2023-09-13T06:46:14.464Z,9.48
2023-09-13T06:48:56.379Z,9.67
2023-09-13T06:54:09.922Z,9.81
2023-09-13T06:56:41.536Z,9.65
2023-09-13T06:59:21.644Z,9.60
2023-09-13T07:02:21.036Z,9.65
2023-09-13T07:07:47.231Z,9.86
2023-09-13T07:10:23.541Z,9.93
2023-09-13T07:12:52.887Z,9.91
2023-09-13T07:15:34.219Z,9.81
2023-09-13T07:18:04.251Z,9.79
2023-09-13T07:20:56.957Z,9.85
2023-09-13T07:23:57.015Z,9.84
2023-09-13T07:26:44.838Z,10.02
2023-09-13T07:29:21.761Z,10.11
2023-09-13T07:31:54.542Z,10.29
2023-09-13T07:34:31.634Z,10.36
2023-09-13T07:37:01.389Z,10.48
2023-09-13T07:39:29.903Z,10.52
2023-09-13T07:42:03.674Z,10.60
2023-09-13T07:44:36.279Z,10.54
2023-09-13T07:47:05.767Z,10.61
2023-09-13T07:49:46.943Z,10.69
2023-09-13T07:52:37.552Z,10.78
2023-09-13T07:55:12.883Z,10.74
2023-09-13T07:57:57.030Z,10.88
2023-09-13T08:00:25.423Z,10.99
2023-09-13T08:02:54.068Z,11.13
2023-09-13T08:05:22.603Z,11.25
2023-09-13T08:07:51.781Z,11.33
2023-09-13T08:10:20.194Z,11.32
2023-09-13T08:12:50.957Z,11.45
2023-09-13T08:15:22.743Z,11.63
2023-09-13T08:17:56.209Z,11.75
2023-09-13T08:20:30.672Z,11.94
2023-09-13T08:22:59.272Z,12.06
2023-09-13T08:25:28.598Z,12.11
2023-09-13T08:27:58.602Z,12.24
2023-09-13T08:30:27.472Z,12.35
2023-09-13T08:32:56.024Z,12.69
2023-09-13T08:35:24.597Z,12.91
2023-09-13T08:37:53.197Z,13.06
2023-09-13T08:40:21.994Z,13.09
2023-09-13T08:42:51.042Z,13.20
2023-09-13T08:45:21.564Z,13.48
2023-09-13T08:47:58.519Z,13.67
2023-09-13T08:50:30.395Z,13.69
2023-09-13T08:53:02.040Z,13.73
2023-09-13T08:55:32.646Z,13.71
2023-09-13T08:58:03.157Z,13.76
2023-09-13T09:00:38.473Z,13.88
2023-09-13T09:03:08.667Z,14.02
2023-09-13T09:05:38.957Z,14.08
2023-09-13T09:08:07.926Z,14.23
2023-09-13T09:10:37.707Z,14.30
2023-09-13T09:13:08.687Z,14.42
2023-09-13T09:15:42.205Z,14.55
2023-09-13T09:18:13.066Z,14.66
2023-09-13T09:20:43.074Z,14.65
2023-09-13T09:23:12.977Z,14.58
2023-09-13T09:25:46.665Z,14.55
2023-09-13T09:28:15.128Z,14.67
2023-09-13T09:30:47.107Z,14.73
2023-09-13T09:33:16.730Z,14.94
2023-09-13T09:35:55.786Z,15.06
2023-09-13T09:38:25.650Z,15.08
2023-09-13T09:40:58.705Z,14.85
2023-09-13T09:43:27.493Z,15.09
2023-09-13T09:45:59.397Z,15.24
2023-09-13T09:48:29.676Z,15.34
2023-09-13T09:51:00.975Z,15.26
2023-09-13T09:53:30.649Z,15.35
2023-09-13T09:56:02.436Z,15.55
2023-09-13T09:58:34.768Z,15.72
2023-09-13T10:01:05.864Z,15.75
2023-09-13T10:03:36.012Z,15.77
2023-09-13T10:06:14.283Z,15.96
2023-09-13T10:08:48.306Z,16.12
2023-09-13T10:11:33.201Z,16.24
2023-09-13T10:14:05.576Z,16.37
2023-09-13T10:16:47.198Z,16.95
2023-09-13T10:19:16.090Z,17.11
2023-09-13T10:21:46.468Z,17.03
2023-09-13T10:24:20.318Z,16.99
2023-09-13T10:27:00.442Z,16.85
2023-09-13T10:29:35.720Z,17.00
2023-09-13T10:32:19.700Z,17.33
2023-09-13T10:38:31.122Z,17.12
2023-09-13T10:41:06.490Z,16.71
2023-09-13T10:43:35.832Z,16.55
2023-09-13T10:46:05.505Z,16.78
2023-09-13T10:48:38.099Z,17.02
2023-09-13T10:51:07.628Z,16.87
2023-09-13T10:53:35.968Z,16.77
2023-09-13T10:56:06.190Z,16.52
2023-09-13T10:58:35.538Z,16.72
2023-09-13T11:01:04.216Z,16.86
2023-09-13T11:03:35.047Z,16.77
2023-09-13T11:06:16.469Z,16.76
2023-09-13T11:08:47.910Z,16.69
2023-09-13T11:11:19.446Z,16.74
2023-09-13T11:13:50.892Z,16.67
2023-09-13T11:16:20.206Z,16.76
2023-09-13T11:18:51.431Z,16.99
2023-09-13T11:21:26.603Z,16.87
2023-09-13T11:24:03.536Z,17.01
2023-09-13T11:26:47.533Z,16.94
2023-09-13T11:29:25.835Z,16.62
2023-09-13T11:32:07.725Z,16.39
2023-09-13T11:34:42.703Z,16.26
2023-09-13T11:37:21.162Z,16.16
2023-09-13T11:39:57.224Z,16.02
2023-09-13T11:42:37.411Z,15.97
2023-09-13T11:45:25.330Z,16.08
2023-09-13T11:48:08.808Z,16.27
2023-09-13T11:50:53.220Z,16.55
2023-09-13T11:53:29.158Z,16.90
2023-09-13T11:56:12.478Z,17.08
2023-09-13T11:58:57.714Z,17.31
2023-09-13T12:01:29.931Z,17.22
2023-09-13T12:07:07.435Z,17.19
2023-09-13T12:09:39.358Z,17.34
2023-09-13T12:12:12.303Z,17.35
2023-09-13T12:15:02.046Z,17.24
2023-09-13T12:17:45.456Z,17.16
2023-09-13T12:20:20.075Z,17.15
2023-09-13T12:22:53.595Z,17.05
2023-09-13T12:25:25.797Z,17.10
2023-09-13T12:28:28.776Z,17.33
2023-09-13T12:31:06.614Z,17.42
2023-09-13T12:33:40.853Z,17.65
2023-09-13T12:36:28.081Z,17.46
2023-09-13T12:39:22.706Z,17.52
2023-09-13T12:41:54.110Z,17.76
2023-09-13T12:44:25.627Z,18.13
2023-09-13T12:46:56.859Z,18.24
2023-09-13T12:49:32.391Z,18.15
2023-09-13T12:55:26.415Z,17.94
2023-09-13T12:58:05.876Z,17.74
2023-09-13T13:00:51.036Z,17.60
2023-09-13T13:03:31.661Z,17.47
2023-09-13T13:06:04.387Z,17.32
2023-09-13T13:08:39.187Z,17.07
2023-09-13T13:11:11.184Z,16.92
2023-09-13T13:13:42.142Z,16.62
2023-09-13T13:16:40.639Z,16.46
2023-09-13T13:22:10.818Z,16.11
2023-09-13T13:24:42.684Z,16.09
2023-09-13T13:27:22.614Z,15.98
2023-09-13T13:29:53.568Z,15.91
2023-09-13T13:32:22.929Z,15.84
2023-09-13T13:34:52.738Z,15.91
2023-09-13T13:37:29.913Z,15.90
2023-09-13T13:40:01.496Z,15.82
2023-09-13T13:42:32.223Z,15.88
2023-09-13T13:45:14.377Z,15.92
2023-09-13T13:48:08.068Z,15.94
2023-09-13T13:50:52.984Z,15.93
2023-09-13T13:53:37.759Z,15.94
2023-09-13T13:56:10.178Z,15.94
2023-09-13T13:58:44.832Z,15.94
2023-09-13T14:01:20.081Z,15.97
2023-09-13T14:04:08.999Z,15.98
2023-09-13T14:06:38.046Z,15.90
2023-09-13T14:09:06.683Z,15.90
2023-09-13T14:11:37.754Z,16.05
2023-09-13T14:14:08.800Z,16.20
2023-09-13T14:16:37.507Z,16.22
2023-09-13T14:19:06.927Z,16.33
2023-09-13T14:21:38.501Z,16.46
2023-09-13T14:24:09.070Z,16.50
2023-09-13T14:26:38.254Z,16.53
2023-09-13T14:29:12.783Z,16.81
2023-09-13T14:31:46.535Z,16.91
2023-09-13T14:34:25.385Z,16.86
2023-09-13T14:36:54.766Z,16.77
2023-09-13T14:39:25.194Z,16.84
2023-09-13T14:41:54.958Z,16.73
2023-09-13T14:44:25.021Z,16.69
2023-09-13T14:46:54.614Z,16.85
2023-09-13T14:49:23.266Z,16.65
2023-09-13T14:51:57.524Z,16.51
2023-09-13T14:54:34.902Z,16.47
2023-09-13T14:57:04.418Z,16.53
2023-09-13T14:59:43.854Z,16.52
2023-09-13T15:02:17.144Z,16.48
2023-09-13T15:04:51.659Z,16.47
2023-09-13T15:07:23.073Z,16.63
2023-09-13T15:09:52.227Z,16.77
2023-09-13T15:12:27.937Z,16.81
2023-09-13T15:14:58.360Z,16.81
2023-09-13T15:17:26.701Z,16.74
2023-09-13T15:19:55.372Z,16.62
2023-09-13T15:22:35.342Z,16.60
2023-09-13T15:25:18.113Z,16.52
2023-09-13T15:27:53.959Z,16.48
2023-09-13T15:30:28.989Z,16.51
2023-09-13T15:33:04.257Z,16.40
2023-09-13T15:35:38.098Z,16.29
2023-09-13T15:38:09.697Z,16.22
2023-09-13T15:40:52.191Z,16.09
2023-09-13T15:43:25.514Z,16.04
2023-09-13T15:46:08.024Z,15.94
2023-09-13T15:48:36.654Z,15.90
2023-09-13T15:51:05.397Z,15.81
2023-09-13T15:53:34.882Z,15.78
2023-09-13T15:56:03.718Z,15.68
2023-09-13T15:58:32.742Z,15.60
2023-09-13T16:01:03.395Z,15.52
2023-09-13T16:03:31.940Z,15.55
2023-09-13T16:06:00.513Z,15.53
2023-09-13T16:08:28.851Z,15.51
2023-09-13T16:10:57.447Z,15.43
2023-09-13T16:13:26.565Z,15.25
2023-09-13T16:15:55.246Z,15.08
2023-09-13T16:18:25.334Z,14.96
2023-09-13T16:20:53.996Z,14.86
2023-09-13T16:23:22.645Z,14.88
2023-09-13T16:25:51.319Z,14.95
2023-09-13T16:28:20.681Z,14.95
2023-09-13T16:30:49.865Z,14.80
2023-09-13T16:33:19.151Z,14.75
2023-09-13T16:35:49.677Z,14.72
2023-09-13T16:38:18.170Z,14.77
2023-09-13T16:40:46.783Z,14.87
2023-09-13T16:43:15.609Z,14.81
2023-09-13T16:45:44.112Z,14.76
2023-09-13T16:48:23.731Z,14.78
2023-09-13T16:50:58.259Z,14.72
2023-09-13T16:53:27.042Z,14.72
2023-09-13T16:55:56.921Z,14.77
2023-09-13T16:58:26.140Z,14.79
2023-09-13T17:00:58.183Z,14.72
2023-09-13T17:03:27.315Z,14.73
2023-09-13T17:05:58.447Z,14.67
2023-09-13T17:08:26.929Z,14.64
2023-09-13T17:10:55.422Z,14.71
2023-09-13T17:13:25.139Z,14.66
2023-09-13T17:15:54.839Z,14.63
2023-09-13T17:18:24.409Z,14.66
2023-09-13T17:20:54.344Z,14.63
2023-09-13T17:23:24.340Z,14.59
2023-09-13T17:25:54.354Z,14.53
2023-09-13T17:28:22.955Z,14.53
2023-09-13T17:30:51.472Z,14.52
2023-09-13T17:33:19.989Z,14.53
2023-09-13T17:35:50.648Z,14.55
2023-09-13T17:38:19.282Z,14.50
2023-09-13T17:40:49.678Z,14.55
2023-09-13T17:43:18.127Z,14.51
2023-09-13T17:45:46.936Z,14.53
2023-09-13T17:48:15.479Z,14.51
2023-09-13T17:50:45.645Z,14.52
2023-09-13T17:53:15.846Z,14.44
2023-09-13T17:55:45.041Z,14.43
2023-09-13T17:58:15.436Z,14.37
2023-09-13T18:00:44.077Z,14.35
2023-09-13T18:03:12.628Z,14.31
2023-09-13T18:05:41.007Z,14.32
2023-09-13T18:08:12.489Z,14.30
2023-09-13T18:10:41.108Z,14.27
2023-09-13T18:13:09.843Z,14.23
2023-09-13T18:15:40.087Z,14.23
2023-09-13T18:18:09.094Z,14.23
2023-09-13T18:20:37.930Z,14.17
2023-09-13T18:23:07.136Z,14.19
2023-09-13T18:25:38.147Z,14.32
2023-09-13T18:28:08.225Z,14.33
2023-09-13T18:30:39.373Z,14.27
2023-09-13T18:33:09.425Z,14.25
2023-09-13T18:35:38.080Z,14.25
2023-09-13T18:38:06.680Z,14.16
2023-09-13T18:40:38.667Z,14.23
2023-09-13T18:43:07.227Z,14.18
2023-09-13T18:45:38.563Z,14.17
2023-09-13T18:48:09.453Z,14.25
2023-09-13T18:50:37.904Z,14.26
2023-09-13T18:53:06.686Z,14.19
2023-09-13T18:55:35.628Z,14.22
2023-09-13T18:58:04.531Z,14.28
2023-09-13T19:00:34.052Z,14.37
2023-09-13T19:03:02.907Z,14.30
2023-09-13T19:05:33.069Z,14.39
2023-09-13T19:08:01.593Z,14.37
2023-09-13T19:10:29.893Z,14.34
2023-09-13T19:12:59.698Z,14.37
2023-09-13T19:15:28.729Z,14.37
2023-09-13T19:17:57.467Z,14.39
2023-09-13T19:20:26.062Z,14.36
2023-09-13T19:22:56.287Z,14.41
2023-09-13T19:25:24.759Z,14.44
2023-09-13T19:27:53.127Z,14.42
2023-09-13T19:30:21.691Z,14.37
2023-09-13T19:32:53.102Z,14.45
2023-09-13T19:35:23.003Z,14.47
2023-09-13T19:37:51.407Z,14.49
2023-09-13T19:40:21.287Z,14.45
2023-09-13T19:42:49.857Z,14.46
2023-09-13T19:45:18.481Z,14.44
2023-09-13T19:47:46.905Z,14.44
2023-09-13T19:50:15.992Z,14.44
2023-09-13T19:52:44.481Z,14.45
2023-09-13T19:55:14.035Z,14.52
2023-09-13T19:57:43.960Z,14.52
2023-09-13T20:00:12.921Z,14.56
2023-09-13T20:02:42.932Z,14.52
2023-09-13T20:05:11.851Z,14.53
2023-09-13T20:07:40.352Z,14.59
2023-09-13T20:10:11.622Z,14.58
2023-09-13T20:12:41.127Z,14.62
2023-09-13T20:15:11.592Z,14.62
2023-09-13T20:17:41.492Z,14.60
2023-09-13T20:20:11.960Z,14.65
2023-09-13T20:22:40.462Z,14.66
2023-09-13T20:25:09.724Z,14.72
2023-09-13T20:27:38.502Z,14.64
2023-09-13T20:30:08.671Z,14.65
2023-09-13T20:32:38.776Z,14.78
2023-09-13T20:35:07.978Z,14.74
2023-09-13T20:37:47.053Z,14.81
2023-09-13T20:40:17.196Z,14.80
2023-09-13T20:42:45.836Z,14.87
2023-09-13T20:45:14.777Z,14.94
2023-09-13T20:47:45.030Z,14.96
2023-09-13T20:50:19.466Z,15.00
2023-09-13T20:52:48.017Z,15.04
2023-09-13T20:55:16.784Z,15.01
2023-09-13T20:57:45.395Z,15.01
2023-09-13T21:00:14.751Z,15.13
2023-09-13T21:02:45.252Z,15.06
2023-09-13T21:05:14.088Z,15.04
2023-09-13T21:07:42.567Z,15.10
2023-09-13T21:10:12.298Z,15.02
2023-09-13T21:12:41.034Z,15.08
2023-09-13T21:15:10.658Z,14.93
2023-09-13T21:17:39.125Z,14.95
2023-09-13T21:20:11.140Z,14.90
2023-09-13T21:22:39.995Z,14.97
2023-09-13T21:25:10.220Z,14.94
2023-09-13T21:27:38.692Z,15.11
2023-09-13T21:30:08.851Z,15.04
2023-09-13T21:32:37.579Z,15.04
2023-09-13T21:35:09.043Z,15.02
2023-09-13T21:37:37.953Z,15.15
2023-09-13T21:40:08.723Z,15.21
2023-09-13T21:42:37.846Z,15.13
2023-09-13T21:45:07.523Z,15.07
2023-09-13T21:47:36.091Z,15.09
2023-09-13T21:50:05.273Z,15.10
2023-09-13T21:52:35.343Z,15.15
2023-09-13T21:55:04.027Z,15.09
2023-09-13T21:57:32.638Z,15.08
2023-09-13T22:00:01.324Z,15.17
2023-09-13T22:02:30.224Z,15.15
2023-09-13T22:05:00.758Z,15.20
2023-09-13T22:07:30.665Z,15.15
2023-09-13T22:10:00.856Z,15.20
2023-09-13T22:12:31.578Z,15.15
2023-09-13T22:15:00.251Z,15.15
2023-09-13T22:17:28.997Z,15.21
2023-09-13T22:19:57.992Z,15.20
2023-09-13T22:22:27.127Z,15.16
2023-09-13T22:24:56.958Z,15.15
2023-09-13T22:27:26.970Z,15.19
2023-09-13T22:29:57.241Z,15.16
2023-09-13T22:32:25.860Z,15.17
2023-09-13T22:34:56.186Z,15.19
2023-09-13T22:37:25.295Z,15.23
2023-09-13T22:39:54.407Z,15.16
2023-09-13T22:42:23.021Z,15.15
2023-09-13T22:44:55.049Z,15.14
2023-09-13T22:47:23.770Z,15.05
2023-09-13T22:49:52.569Z,14.93
2023-09-13T22:52:25.907Z,14.79
2023-09-13T22:54:56.020Z,14.76
2023-09-13T22:57:24.624Z,14.66
2023-09-13T22:59:54.739Z,14.64
2023-09-13T23:02:23.512Z,14.63
2023-09-13T23:04:52.059Z,14.68
2023-09-13T23:07:21.291Z,14.66
2023-09-13T23:09:50.019Z,14.66
2023-09-13T23:12:18.476Z,14.67
2023-09-13T23:14:47.031Z,14.72
2023-09-13T23:17:17.778Z,14.72
2023-09-13T23:19:46.367Z,14.76
2023-09-13T23:22:15.014Z,14.79
2023-09-13T23:24:43.677Z,14.81
2023-09-13T23:27:12.227Z,14.79
2023-09-13T23:29:41.064Z,14.76
2023-09-13T23:32:09.839Z,14.75
2023-09-13T23:34:41.555Z,14.76
2023-09-13T23:37:10.108Z,14.77
2023-09-13T23:39:41.821Z,14.80
2023-09-13T23:42:10.316Z,14.80
2023-09-13T23:44:38.810Z,14.81
2023-09-13T23:47:07.267Z,14.77
2023-09-13T23:49:35.846Z,14.74
2023-09-13T23:52:09.470Z,14.71
2023-09-13T23:54:38.055Z,14.69
2023-09-13T23:57:06.806Z,14.68
